createdAt,value
2019-02-12T00:00:41.359Z,960.34
2019-02-12T00:01:41.393Z,960.39
2019-02-12T00:02:41.313Z,960.41
2019-02-12T00:03:41.309Z,960.41
2019-02-12T00:04:41.278Z,960.45
2019-02-12T00:05:41.265Z,960.47
2019-02-12T00:06:41.227Z,960.44
2019-02-12T00:07:41.225Z,960.38
2019-02-12T00:08:41.205Z,960.41
2019-02-12T00:09:41.180Z,960.43
2019-02-12T00:10:41.160Z,960.46
2019-02-12T00:11:41.124Z,960.5
2019-02-12T00:12:41.134Z,960.48
2019-02-12T00:13:41.117Z,960.5
2019-02-12T00:14:41.082Z,960.41
2019-02-12T00:15:41.064Z,960.47
2019-02-12T00:16:41.037Z,960.51
2019-02-12T00:17:41.006Z,960.46
2019-02-12T00:18:40.987Z,960.48
2019-02-12T00:19:40.968Z,960.45
2019-02-12T00:20:40.948Z,960.42
2019-02-12T00:21:40.930Z,960.42
2019-02-12T00:22:40.915Z,960.44
2019-02-12T00:23:40.892Z,960.43
2019-02-12T00:24:40.873Z,960.5
2019-02-12T00:25:40.856Z,960.52
2019-02-12T00:26:40.835Z,960.55
2019-02-12T00:27:40.818Z,960.57
2019-02-12T00:28:40.797Z,960.56
2019-02-12T00:29:40.779Z,960.55
2019-02-12T00:30:40.762Z,960.5
2019-02-12T00:31:40.744Z,960.57
2019-02-12T00:32:40.721Z,960.59
2019-02-12T00:33:40.703Z,960.57
2019-02-12T00:34:40.684Z,960.54
2019-02-12T00:35:40.665Z,960.56
2019-02-12T00:36:40.648Z,960.58
2019-02-12T00:37:40.628Z,960.64
2019-02-12T00:38:40.608Z,960.75
2019-02-12T00:39:40.590Z,960.77
2019-02-12T00:40:40.571Z,960.75
2019-02-12T00:41:40.554Z,960.77
2019-02-12T00:42:40.532Z,960.8
2019-02-12T00:43:40.520Z,960.82
2019-02-12T00:44:40.503Z,960.82
2019-02-12T00:45:40.477Z,960.84
2019-02-12T00:46:40.455Z,960.83
2019-02-12T00:47:40.438Z,960.8
2019-02-12T00:48:40.419Z,960.85
2019-02-12T00:49:40.400Z,960.85
2019-02-12T00:50:40.381Z,960.83
2019-02-12T00:51:40.362Z,960.88
2019-02-12T00:52:40.344Z,960.79
2019-02-12T00:53:40.323Z,960.79
2019-02-12T00:54:40.310Z,960.77
2019-02-12T00:55:40.286Z,960.82
2019-02-12T00:56:40.268Z,960.84
2019-02-12T00:57:40.248Z,960.8
2019-02-12T00:58:40.229Z,960.82
2019-02-12T00:59:40.213Z,960.81
2019-02-12T01:00:40.191Z,960.76
2019-02-12T01:01:40.173Z,960.8
2019-02-12T01:02:40.154Z,960.83
2019-02-12T01:03:40.135Z,960.81
2019-02-12T01:04:40.116Z,960.76
2019-02-12T01:05:40.097Z,960.75
2019-02-12T01:06:40.078Z,960.74
2019-02-12T01:07:40.058Z,960.74
2019-02-12T01:08:40.040Z,960.7
2019-02-12T01:09:40.021Z,960.73
2019-02-12T01:10:40.004Z,960.73
2019-02-12T01:11:39.982Z,960.78
2019-02-12T01:12:39.966Z,960.76
2019-02-12T01:13:39.944Z,960.79
2019-02-12T01:14:39.926Z,960.85
2019-02-12T01:15:39.907Z,960.85
2019-02-12T01:16:39.888Z,960.81
2019-02-12T01:17:39.868Z,960.85
2019-02-12T01:18:39.851Z,960.84
2019-02-12T01:19:39.831Z,960.79
2019-02-12T01:20:39.820Z,960.75
2019-02-12T01:21:39.794Z,960.75
2019-02-12T01:22:39.774Z,960.72
2019-02-12T01:23:39.755Z,960.67
2019-02-12T01:24:39.737Z,960.67
2019-02-12T01:25:39.720Z,960.66
2019-02-12T01:26:39.697Z,960.69
2019-02-12T01:27:39.689Z,960.63
2019-02-12T01:28:39.662Z,960.63
2019-02-12T01:29:39.645Z,960.7
2019-02-12T01:30:39.623Z,960.7
2019-02-12T01:31:39.603Z,960.65
2019-02-12T01:32:39.637Z,960.66
2019-02-12T01:33:39.570Z,960.69
2019-02-12T01:34:39.547Z,960.71
2019-02-12T01:35:39.528Z,960.76
2019-02-12T01:36:39.510Z,960.73
2019-02-12T01:37:39.493Z,960.76
2019-02-12T01:38:39.472Z,960.76
2019-02-12T01:39:39.452Z,960.75
2019-02-12T01:40:39.433Z,960.73
2019-02-12T01:41:39.415Z,960.76
2019-02-12T01:42:39.395Z,960.81
2019-02-12T01:43:39.377Z,960.82
2019-02-12T01:44:39.357Z,960.8
2019-02-12T01:45:39.339Z,960.82
2019-02-12T01:46:39.320Z,960.78
2019-02-12T01:47:39.301Z,960.85
2019-02-12T01:48:39.281Z,960.81
2019-02-12T01:49:39.262Z,960.8
2019-02-12T01:50:39.244Z,960.74
2019-02-12T01:51:39.230Z,960.81
2019-02-12T01:52:39.306Z,960.81
2019-02-12T01:53:39.187Z,960.86
2019-02-12T01:54:39.177Z,960.88
2019-02-12T01:55:39.148Z,960.9
2019-02-12T01:56:39.129Z,960.89
2019-02-12T01:57:39.112Z,960.91
2019-02-12T01:58:39.091Z,960.87
2019-02-12T01:59:39.072Z,960.98
2019-02-12T02:00:39.054Z,961.01
2019-02-12T02:01:39.035Z,961
2019-02-12T02:02:39.016Z,961
2019-02-12T02:03:38.998Z,960.98
2019-02-12T02:04:38.978Z,961.05
2019-02-12T02:05:38.960Z,961.05
2019-02-12T02:06:38.940Z,961.01
2019-02-12T02:07:38.923Z,961.04
2019-02-12T02:08:38.902Z,960.99
2019-02-12T02:09:38.883Z,960.99
2019-02-12T02:10:39.159Z,960.89
2019-02-12T02:11:38.848Z,960.97
2019-02-12T02:12:38.827Z,960.92
2019-02-12T02:13:38.807Z,960.98
2019-02-12T02:14:38.788Z,961.12
2019-02-12T02:15:38.770Z,961.13
2019-02-12T02:16:38.750Z,961.15
2019-02-12T02:17:38.731Z,961.15
2019-02-12T02:18:38.711Z,961.13
2019-02-12T02:19:38.693Z,961.18
2019-02-12T02:20:38.675Z,961.04
2019-02-12T02:21:43.856Z,961.12
2019-02-12T02:22:38.641Z,961.09
2019-02-12T02:23:38.617Z,961.05
2019-02-12T02:24:38.597Z,961.07
2019-02-12T02:25:38.578Z,961.02
2019-02-12T02:26:38.558Z,960.97
2019-02-12T02:27:38.541Z,961.03
2019-02-12T02:28:38.521Z,960.93
2019-02-12T02:29:38.502Z,960.98
2019-02-12T02:30:38.486Z,960.99
2019-02-12T02:31:38.466Z,961.02
2019-02-12T02:32:38.444Z,961.08
2019-02-12T02:33:38.426Z,961.12
2019-02-12T02:34:38.410Z,961.08
2019-02-12T02:35:38.387Z,961.1
2019-02-12T02:36:38.374Z,961.12
2019-02-12T02:37:38.349Z,961.07
2019-02-12T02:38:38.340Z,961.1
2019-02-12T02:39:38.311Z,961.06
2019-02-12T02:40:38.291Z,961.1
2019-02-12T02:41:38.276Z,961.1
2019-02-12T02:42:38.269Z,961.14
2019-02-12T02:43:38.234Z,961.1
2019-02-12T02:44:38.216Z,961.14
2019-02-12T02:45:38.197Z,961.16
2019-02-12T02:46:38.185Z,961.19
2019-02-12T02:47:38.158Z,961.23
2019-02-12T02:48:38.140Z,961.19
2019-02-12T02:49:38.134Z,961.2
2019-02-12T02:50:38.102Z,961.2
2019-02-12T02:51:38.083Z,961.31
2019-02-12T02:52:38.063Z,961.32
2019-02-12T02:53:38.044Z,961.3
2019-02-12T02:54:38.025Z,961.32
2019-02-12T02:55:38.005Z,961.33
2019-02-12T02:56:37.994Z,961.29
2019-02-12T02:57:37.968Z,961.24
2019-02-12T02:58:37.948Z,961.27
2019-02-12T02:59:37.930Z,961.29
2019-02-12T03:00:37.910Z,961.31
2019-02-12T03:01:37.892Z,961.3
2019-02-12T03:02:37.872Z,961.35
2019-02-12T03:03:37.853Z,961.37
2019-02-12T03:04:37.836Z,961.37
2019-02-12T03:05:37.816Z,961.38
2019-02-12T03:06:37.795Z,961.39
2019-02-12T03:07:37.809Z,961.37
2019-02-12T03:08:37.756Z,961.38
2019-02-12T03:09:37.739Z,961.37
2019-02-12T03:10:37.722Z,961.36
2019-02-12T03:11:37.700Z,961.39
2019-02-12T03:12:37.681Z,961.43
2019-02-12T03:13:37.662Z,961.48
2019-02-12T03:14:37.644Z,961.48
2019-02-12T03:15:37.635Z,961.54
2019-02-12T03:16:37.609Z,961.55
2019-02-12T03:17:37.585Z,961.52
2019-02-12T03:18:37.567Z,961.58
2019-02-12T03:19:37.547Z,961.58
2019-02-12T03:20:37.530Z,961.63
2019-02-12T03:21:37.512Z,961.62
2019-02-12T03:22:37.493Z,961.63
2019-02-12T03:23:37.471Z,961.63
2019-02-12T03:24:37.464Z,961.58
2019-02-12T03:25:37.434Z,961.64
2019-02-12T03:26:37.421Z,961.66
2019-02-12T03:27:37.396Z,961.66
2019-02-12T03:28:37.376Z,961.6
2019-02-12T03:29:37.357Z,961.62
2019-02-12T03:30:37.339Z,961.62
2019-02-12T03:31:37.319Z,961.62
2019-02-12T03:32:37.309Z,961.71
2019-02-12T03:33:37.288Z,961.69
2019-02-12T03:34:37.261Z,961.7
2019-02-12T03:35:37.242Z,961.77
2019-02-12T03:36:37.223Z,961.74
2019-02-12T03:37:37.205Z,961.76
2019-02-12T03:38:37.187Z,961.75
2019-02-12T03:39:37.167Z,961.68
2019-02-12T03:40:37.150Z,961.72
2019-02-12T03:41:37.129Z,961.68
2019-02-12T03:42:37.112Z,961.74
2019-02-12T03:43:37.090Z,961.7
2019-02-12T03:44:37.074Z,961.69
2019-02-12T03:45:37.058Z,961.62
2019-02-12T03:46:37.043Z,961.64
2019-02-12T03:47:37.015Z,961.67
2019-02-12T03:48:36.995Z,961.67
2019-02-12T03:49:36.980Z,961.73
2019-02-12T03:50:36.958Z,961.76
2019-02-12T03:51:36.939Z,961.74
2019-02-12T03:52:36.919Z,961.78
2019-02-12T03:53:36.905Z,961.77
2019-02-12T03:54:36.883Z,961.81
2019-02-12T03:55:36.863Z,961.81
2019-02-12T03:56:36.845Z,961.84
2019-02-12T03:57:36.835Z,961.82
2019-02-12T03:58:36.805Z,961.79
2019-02-12T03:59:36.788Z,961.82
2019-02-12T04:00:36.767Z,961.8
2019-02-12T04:01:36.748Z,961.81
2019-02-12T04:02:36.729Z,961.88
2019-02-12T04:03:36.815Z,961.9
2019-02-12T04:04:36.690Z,961.88
2019-02-12T04:05:36.671Z,961.88
2019-02-12T04:06:36.652Z,961.9
2019-02-12T04:07:36.632Z,961.89
2019-02-12T04:08:36.617Z,961.92
2019-02-12T04:09:36.594Z,961.91
2019-02-12T04:10:36.576Z,961.97
2019-02-12T04:11:36.559Z,961.88
2019-02-12T04:12:36.538Z,961.89
2019-02-12T04:13:36.519Z,961.92
2019-02-12T04:14:36.499Z,961.85
2019-02-12T04:15:36.480Z,961.86
2019-02-12T04:16:36.482Z,961.82
2019-02-12T04:17:36.442Z,961.79
2019-02-12T04:18:36.422Z,961.76
2019-02-12T04:19:36.405Z,961.78
2019-02-12T04:20:36.387Z,961.74
2019-02-12T04:21:36.365Z,961.73
2019-02-12T04:22:36.347Z,961.78
2019-02-12T04:23:36.326Z,961.84
2019-02-12T04:24:36.308Z,961.77
2019-02-12T04:25:36.289Z,961.74
2019-02-12T04:26:36.270Z,961.74
2019-02-12T04:27:36.252Z,961.73
2019-02-12T04:28:36.232Z,961.79
2019-02-12T04:29:36.212Z,961.83
2019-02-12T04:30:36.193Z,961.79
2019-02-12T04:31:36.175Z,961.79
2019-02-12T04:32:36.158Z,961.85
2019-02-12T04:33:36.136Z,961.85
2019-02-12T04:34:36.118Z,961.88
2019-02-12T04:35:36.098Z,961.86
2019-02-12T04:36:36.087Z,961.88
2019-02-12T04:37:36.060Z,961.89
2019-02-12T04:38:36.039Z,961.97
2019-02-12T04:39:36.022Z,961.91
2019-02-12T04:40:36.003Z,961.86
2019-02-12T04:41:35.983Z,961.84
2019-02-12T04:42:35.965Z,961.87
2019-02-12T04:43:35.945Z,961.87
2019-02-12T04:44:35.925Z,961.82
2019-02-12T04:45:35.906Z,961.76
2019-02-12T04:46:35.893Z,961.77
2019-02-12T04:47:35.869Z,961.8
2019-02-12T04:48:35.855Z,961.85
2019-02-12T04:49:35.830Z,961.83
2019-02-12T04:50:35.810Z,961.87
2019-02-12T04:51:35.792Z,961.9
2019-02-12T04:52:35.773Z,961.94
2019-02-12T04:53:35.753Z,961.98
2019-02-12T04:54:35.734Z,961.93
2019-02-12T04:55:35.715Z,961.92
2019-02-12T04:56:35.694Z,961.95
2019-02-12T04:57:35.678Z,961.93
2019-02-12T04:58:35.659Z,961.9
2019-02-12T04:59:35.639Z,961.95
2019-02-12T05:00:35.618Z,961.97
2019-02-12T05:01:35.602Z,962
2019-02-12T05:02:35.581Z,961.97
2019-02-12T05:03:35.561Z,961.97
2019-02-12T05:04:35.543Z,961.9
2019-02-12T05:05:35.522Z,961.92
2019-02-12T05:06:35.503Z,961.95
2019-02-12T05:07:35.497Z,961.95
2019-02-12T05:08:35.466Z,961.94
2019-02-12T05:09:35.447Z,961.93
2019-02-12T05:10:35.427Z,961.97
2019-02-12T05:11:35.409Z,961.98
2019-02-12T05:12:35.392Z,961.99
2019-02-12T05:13:35.371Z,962.04
2019-02-12T05:14:35.352Z,962.01
2019-02-12T05:15:35.333Z,962.02
2019-02-12T05:16:35.313Z,962.03
2019-02-12T05:17:35.294Z,962.04
2019-02-12T05:18:35.275Z,962.04
2019-02-12T05:19:35.256Z,962.08
2019-02-12T05:20:35.236Z,962.02
2019-02-12T05:21:35.217Z,962.05
2019-02-12T05:22:43.078Z,962.03
2019-02-12T05:23:35.178Z,962.06
2019-02-12T05:24:35.162Z,961.94
2019-02-12T05:25:35.151Z,961.95
2019-02-12T05:26:35.121Z,961.94
2019-02-12T05:27:35.104Z,961.93
2019-02-12T05:28:35.081Z,961.97
2019-02-12T05:29:35.062Z,961.98
2019-02-12T05:30:35.044Z,961.97
2019-02-12T05:31:35.023Z,961.95
2019-02-12T05:32:35.005Z,961.96
2019-02-12T05:33:34.986Z,962.04
2019-02-12T05:34:34.967Z,962.01
2019-02-12T05:35:34.947Z,962.01
2019-02-12T05:36:34.928Z,962.04
2019-02-12T05:37:34.909Z,962.03
2019-02-12T05:38:34.889Z,962.11
2019-02-12T05:39:34.870Z,962.05
2019-02-12T05:40:34.851Z,962.08
2019-02-12T05:41:34.832Z,962.07
2019-02-12T05:42:34.812Z,962.05
2019-02-12T05:43:34.792Z,962.05
2019-02-12T05:44:34.775Z,962.01
2019-02-12T05:45:34.754Z,961.97
2019-02-12T05:46:34.738Z,962.01
2019-02-12T05:47:34.716Z,962.03
2019-02-12T05:48:34.698Z,962.04
2019-02-12T05:49:34.677Z,961.96
2019-02-12T05:50:34.659Z,961.95
2019-02-12T05:51:34.639Z,961.98
2019-02-12T05:52:34.627Z,961.99
2019-02-12T05:53:34.600Z,962
2019-02-12T05:54:34.581Z,962.05
2019-02-12T05:55:34.562Z,962.01
2019-02-12T05:56:34.542Z,961.94
2019-02-12T05:57:34.524Z,961.95
2019-02-12T05:58:34.505Z,961.86
2019-02-12T05:59:34.485Z,961.93
2019-02-12T06:00:34.467Z,961.93
2019-02-12T06:01:34.446Z,961.93
2019-02-12T06:02:34.428Z,961.86
2019-02-12T06:03:34.409Z,962.02
2019-02-12T06:04:34.391Z,962.03
2019-02-12T06:05:34.369Z,962.03
2019-02-12T06:06:34.354Z,962.05
2019-02-12T06:07:34.332Z,962.06
2019-02-12T06:08:34.312Z,962.12
2019-02-12T06:09:34.293Z,962.11
2019-02-12T06:10:34.275Z,962.1
2019-02-12T06:11:34.257Z,962.1
2019-02-12T06:12:34.235Z,962.19
2019-02-12T06:13:34.215Z,962.19
2019-02-12T06:14:34.199Z,962.17
2019-02-12T06:15:34.177Z,962.19
2019-02-12T06:16:34.161Z,962.18
2019-02-12T06:17:34.139Z,962.22
2019-02-12T06:18:34.119Z,962.16
2019-02-12T06:19:34.099Z,962.18
2019-02-12T06:20:34.081Z,962.24
2019-02-12T06:21:34.063Z,962.2
2019-02-12T06:22:34.043Z,962.25
2019-02-12T06:23:34.024Z,962.2
2019-02-12T06:24:34.005Z,962.19
2019-02-12T06:25:33.986Z,962.18
2019-02-12T06:26:33.968Z,962.2
2019-02-12T06:27:33.947Z,962.21
2019-02-12T06:28:33.927Z,962.25
2019-02-12T06:29:33.925Z,962.24
2019-02-12T06:30:33.893Z,962.22
2019-02-12T06:31:33.870Z,962.28
2019-02-12T06:32:33.851Z,962.32
2019-02-12T06:33:33.831Z,962.34
2019-02-12T06:34:33.813Z,962.35
2019-02-12T06:35:33.793Z,962.42
2019-02-12T06:36:33.775Z,962.41
2019-02-12T06:37:33.754Z,962.38
2019-02-12T06:38:33.735Z,962.43
2019-02-12T06:39:33.718Z,962.48
2019-02-12T06:40:33.696Z,962.45
2019-02-12T06:41:33.677Z,962.42
2019-02-12T06:42:33.658Z,962.44
2019-02-12T06:43:33.652Z,962.4
2019-02-12T06:44:33.619Z,962.42
2019-02-12T06:45:33.601Z,962.42
2019-02-12T06:46:33.586Z,962.49
2019-02-12T06:47:33.577Z,962.52
2019-02-12T06:48:33.543Z,962.52
2019-02-12T06:49:33.523Z,962.54
2019-02-12T06:50:33.506Z,962.57
2019-02-12T06:51:33.485Z,962.58
2019-02-12T06:52:33.468Z,962.54
2019-02-12T06:53:33.452Z,962.5
2019-02-12T06:54:33.429Z,962.53
2019-02-12T06:55:33.408Z,962.52
2019-02-12T06:56:33.390Z,962.49
2019-02-12T06:57:33.371Z,962.48
2019-02-12T06:58:33.351Z,962.53
2019-02-12T06:59:33.332Z,962.59
2019-02-12T07:00:33.313Z,962.55
2019-02-12T07:01:33.294Z,962.54
2019-02-12T07:02:33.274Z,962.62
2019-02-12T07:03:33.255Z,962.67
2019-02-12T07:04:33.236Z,962.7
2019-02-12T07:05:33.217Z,962.65
2019-02-12T07:06:33.196Z,962.64
2019-02-12T07:07:33.180Z,962.7
2019-02-12T07:08:33.160Z,962.75
2019-02-12T07:09:33.138Z,962.72
2019-02-12T07:10:33.120Z,962.7
2019-02-12T07:11:33.100Z,962.69
2019-02-12T07:12:33.086Z,962.69
2019-02-12T07:13:33.062Z,962.72
2019-02-12T07:14:33.043Z,962.74
2019-02-12T07:15:33.071Z,962.75
2019-02-12T07:16:33.007Z,962.76
2019-02-12T07:17:32.985Z,962.78
2019-02-12T07:18:32.966Z,962.78
2019-02-12T07:19:32.947Z,962.82
2019-02-12T07:20:32.927Z,962.81
2019-02-12T07:21:32.913Z,962.82
2019-02-12T07:22:32.889Z,962.83
2019-02-12T07:23:32.872Z,962.85
2019-02-12T07:24:32.850Z,962.96
2019-02-12T07:25:32.831Z,962.95
2019-02-12T07:26:32.817Z,962.94
2019-02-12T07:27:32.795Z,962.92
2019-02-12T07:28:32.773Z,962.98
2019-02-12T07:29:32.754Z,962.94
2019-02-12T07:30:32.735Z,962.91
2019-02-12T07:31:34.616Z,962.99
2019-02-12T07:32:32.696Z,963
2019-02-12T07:33:32.677Z,963.05
2019-02-12T07:34:32.658Z,962.96
2019-02-12T07:35:32.638Z,963.05
2019-02-12T07:36:32.619Z,963.11
2019-02-12T07:37:32.601Z,963.13
2019-02-12T07:38:32.581Z,963.07
2019-02-12T07:39:32.560Z,963.12
2019-02-12T07:40:32.543Z,963.12
2019-02-12T07:41:32.522Z,963.12
2019-02-12T07:42:32.502Z,963.17
2019-02-12T07:43:32.483Z,963.14
2019-02-12T07:44:32.464Z,963.21
2019-02-12T07:45:32.446Z,963.24
2019-02-12T07:46:32.425Z,963.32
2019-02-12T07:47:32.406Z,963.39
2019-02-12T07:48:32.387Z,963.35
2019-02-12T07:49:32.367Z,963.37
2019-02-12T07:50:32.349Z,963.39
2019-02-12T07:51:32.328Z,963.5
2019-02-12T07:52:32.310Z,963.48
2019-02-12T07:53:32.292Z,963.57
2019-02-12T07:54:32.272Z,963.51
2019-02-12T07:55:32.251Z,963.56
2019-02-12T07:56:32.236Z,963.57
2019-02-12T07:57:32.212Z,963.61
2019-02-12T07:58:32.198Z,963.64
2019-02-12T07:59:32.175Z,963.65
2019-02-12T08:00:32.158Z,963.61
2019-02-12T08:01:32.136Z,963.62
2019-02-12T08:02:33.738Z,963.65
2019-02-12T08:03:32.099Z,963.67
2019-02-12T08:04:32.079Z,963.69
2019-02-12T08:05:32.064Z,963.69
2019-02-12T08:06:32.041Z,963.67
2019-02-12T08:07:32.023Z,963.66
2019-02-12T08:08:32.002Z,963.7
2019-02-12T08:09:31.983Z,963.68
2019-02-12T08:10:31.964Z,963.7
2019-02-12T08:11:31.946Z,963.67
2019-02-12T08:12:31.929Z,963.75
2019-02-12T08:13:31.908Z,963.75
2019-02-12T08:14:31.889Z,963.72
2019-02-12T08:15:31.871Z,963.76
2019-02-12T08:16:31.851Z,963.78
2019-02-12T08:17:31.832Z,963.78
2019-02-12T08:18:31.812Z,963.8
2019-02-12T08:19:31.793Z,963.83
2019-02-12T08:20:31.774Z,963.83
2019-02-12T08:21:31.774Z,963.84
2019-02-12T08:22:31.738Z,963.85
2019-02-12T08:23:40.850Z,963.86
2019-02-12T08:24:31.703Z,963.86
2019-02-12T08:25:31.680Z,963.83
2019-02-12T08:26:31.661Z,963.89
2019-02-12T08:27:31.647Z,963.82
2019-02-12T08:28:31.626Z,963.83
2019-02-12T08:29:31.605Z,963.83
2019-02-12T08:30:31.585Z,963.81
2019-02-12T08:31:31.566Z,963.82
2019-02-12T08:32:31.550Z,963.8
2019-02-12T08:33:31.530Z,963.84
2019-02-12T08:34:31.511Z,963.86
2019-02-12T08:35:31.492Z,963.95
2019-02-12T08:36:31.472Z,963.91
2019-02-12T08:37:32.022Z,963.86
2019-02-12T08:38:31.462Z,963.81
2019-02-12T08:39:31.418Z,963.89
2019-02-12T08:40:31.397Z,963.82
2019-02-12T08:41:31.377Z,963.84
2019-02-12T08:42:31.358Z,963.82
2019-02-12T08:43:31.340Z,963.84
2019-02-12T08:44:31.320Z,963.9
2019-02-12T08:45:31.305Z,963.83
2019-02-12T08:46:31.282Z,963.89
2019-02-12T08:47:31.273Z,963.84
2019-02-12T08:48:31.244Z,963.87
2019-02-12T08:49:31.229Z,963.94
2019-02-12T08:50:31.209Z,963.93
2019-02-12T08:51:31.189Z,963.97
2019-02-12T08:52:31.169Z,963.92
2019-02-12T08:53:31.151Z,963.89
2019-02-12T08:54:31.134Z,963.97
2019-02-12T08:55:31.121Z,963.9
2019-02-12T08:56:31.095Z,963.97
2019-02-12T08:57:31.077Z,963.92
2019-02-12T08:58:31.061Z,963.94
2019-02-12T08:59:31.037Z,963.94
2019-02-12T09:00:31.020Z,964.01
2019-02-12T09:01:31.001Z,963.99
2019-02-12T09:02:30.981Z,963.93
2019-02-12T09:03:30.963Z,963.97
2019-02-12T09:04:30.946Z,963.96
2019-02-12T09:05:30.927Z,964.03
2019-02-12T09:06:30.907Z,964.02
2019-02-12T09:07:30.894Z,964.01
2019-02-12T09:08:30.882Z,964.03
2019-02-12T09:09:30.852Z,964.12
2019-02-12T09:10:30.833Z,964.07
2019-02-12T09:11:30.829Z,964.17
2019-02-12T09:12:30.799Z,964.17
2019-02-12T09:13:30.778Z,964.16
2019-02-12T09:14:30.759Z,964.09
2019-02-12T09:15:30.742Z,964.14
2019-02-12T09:16:30.722Z,964.1
2019-02-12T09:17:30.704Z,964.15
2019-02-12T09:18:30.687Z,964.12
2019-02-12T09:19:30.668Z,964.14
2019-02-12T09:20:30.650Z,964.14
2019-02-12T09:21:30.645Z,964.13
2019-02-12T09:22:30.612Z,964.23
2019-02-12T09:23:30.595Z,964.22
2019-02-12T09:24:30.577Z,964.2
2019-02-12T09:25:30.559Z,964.23
2019-02-12T09:26:30.541Z,964.28
2019-02-12T09:27:30.523Z,964.26
2019-02-12T09:28:30.504Z,964.25
2019-02-12T09:29:30.494Z,964.28
2019-02-12T09:30:30.469Z,964.33
2019-02-12T09:31:30.456Z,964.31
2019-02-12T09:32:30.433Z,964.29
2019-02-12T09:33:30.414Z,964.29
2019-02-12T09:34:30.397Z,964.29
2019-02-12T09:35:30.379Z,964.34
2019-02-12T09:36:30.361Z,964.33
2019-02-12T09:37:30.343Z,964.44
2019-02-12T09:38:30.328Z,964.41
2019-02-12T09:39:30.307Z,964.49
2019-02-12T09:40:30.289Z,964.42
2019-02-12T09:41:30.271Z,964.47
2019-02-12T09:42:30.254Z,964.47
2019-02-12T09:43:30.236Z,964.51
2019-02-12T09:44:30.218Z,964.51
2019-02-12T09:45:30.200Z,964.48
2019-02-12T09:46:30.183Z,964.51
2019-02-12T09:47:30.164Z,964.57
2019-02-12T09:48:30.154Z,964.55
2019-02-12T09:49:30.129Z,964.59
2019-02-12T09:50:30.115Z,964.59
2019-02-12T09:51:30.093Z,964.56
2019-02-12T09:52:30.075Z,964.65
2019-02-12T09:53:30.059Z,964.65
2019-02-12T09:54:30.047Z,964.66
2019-02-12T09:55:30.022Z,964.67
2019-02-12T09:56:30.011Z,964.64
2019-02-12T09:57:29.987Z,964.59
2019-02-12T09:58:29.970Z,964.66
2019-02-12T09:59:29.956Z,964.75
2019-02-12T10:00:29.934Z,964.68
2019-02-12T10:01:29.920Z,964.72
2019-02-12T10:02:29.903Z,964.75
2019-02-12T10:03:29.881Z,964.71
2019-02-12T10:04:29.864Z,964.72
2019-02-12T10:05:29.846Z,964.76
2019-02-12T10:06:29.829Z,964.76
2019-02-12T10:07:29.860Z,964.72
2019-02-12T10:08:29.793Z,964.73
2019-02-12T10:09:29.783Z,964.75
2019-02-12T10:10:29.759Z,964.81
2019-02-12T10:11:29.741Z,964.76
2019-02-12T10:12:29.723Z,964.74
2019-02-12T10:13:29.705Z,964.74
2019-02-12T10:14:29.689Z,964.8
2019-02-12T10:15:29.672Z,964.75
2019-02-12T10:16:29.654Z,964.81
2019-02-12T10:17:29.637Z,964.78
2019-02-12T10:18:29.620Z,964.77
2019-02-12T10:19:29.602Z,964.76
2019-02-12T10:20:29.586Z,964.81
2019-02-12T10:21:29.572Z,964.78
2019-02-12T10:22:29.563Z,964.78
2019-02-12T10:23:29.533Z,964.84
2019-02-12T10:24:29.525Z,964.88
2019-02-12T10:25:29.501Z,964.89
2019-02-12T10:26:29.483Z,964.91
2019-02-12T10:27:29.466Z,964.9
2019-02-12T10:28:29.450Z,964.89
2019-02-12T10:29:29.432Z,964.86
2019-02-12T10:30:29.415Z,964.85
2019-02-12T10:31:29.398Z,964.88
2019-02-12T10:32:29.381Z,964.87
2019-02-12T10:33:29.364Z,964.85
2019-02-12T10:34:29.346Z,964.83
2019-02-12T10:35:29.336Z,964.86
2019-02-12T10:36:29.313Z,964.89
2019-02-12T10:37:29.295Z,964.92
2019-02-12T10:38:29.279Z,964.91
2019-02-12T10:39:29.262Z,964.81
2019-02-12T10:40:29.245Z,964.85
2019-02-12T10:41:29.233Z,964.88
2019-02-12T10:42:29.210Z,964.87
2019-02-12T10:43:29.193Z,964.85
2019-02-12T10:44:29.177Z,964.87
2019-02-12T10:45:29.158Z,964.81
2019-02-12T10:46:29.141Z,964.86
2019-02-12T10:47:29.135Z,964.8
2019-02-12T10:48:29.108Z,964.87
2019-02-12T10:49:29.089Z,964.86
2019-02-12T10:50:29.073Z,964.92
2019-02-12T10:51:29.059Z,964.91
2019-02-12T10:52:29.038Z,964.99
2019-02-12T10:53:29.640Z,964.92
2019-02-12T10:54:29.004Z,964.85
2019-02-12T10:55:28.991Z,964.82
2019-02-12T10:56:28.968Z,964.93
2019-02-12T10:57:28.952Z,964.85
2019-02-12T10:58:28.936Z,964.94
2019-02-12T10:59:28.916Z,964.92
2019-02-12T11:00:28.901Z,964.89
2019-02-12T11:01:28.882Z,964.92
2019-02-12T11:02:28.864Z,964.93
2019-02-12T11:03:28.847Z,964.92
2019-02-12T11:04:28.830Z,964.93
2019-02-12T11:05:28.813Z,964.91
2019-02-12T11:06:28.797Z,964.88
2019-02-12T11:07:28.779Z,964.82
2019-02-12T11:08:28.761Z,964.85
2019-02-12T11:09:28.744Z,964.85
2019-02-12T11:10:28.727Z,964.83
2019-02-12T11:11:28.709Z,964.88
2019-02-12T11:12:28.692Z,964.78
2019-02-12T11:13:28.675Z,964.83
2019-02-12T11:14:28.660Z,964.81
2019-02-12T11:15:28.642Z,964.83
2019-02-12T11:16:28.624Z,964.81
2019-02-12T11:17:28.608Z,964.86
2019-02-12T11:18:28.589Z,964.9
2019-02-12T11:19:28.572Z,964.92
2019-02-12T11:20:28.556Z,964.86
2019-02-12T11:21:28.540Z,964.84
2019-02-12T11:22:28.523Z,964.9
2019-02-12T11:23:28.506Z,964.81
2019-02-12T11:24:35.241Z,964.84
2019-02-12T11:25:28.472Z,964.84
2019-02-12T11:26:28.456Z,964.87
2019-02-12T11:27:28.440Z,964.87
2019-02-12T11:28:28.423Z,964.89
2019-02-12T11:29:28.406Z,964.87
2019-02-12T11:30:28.390Z,964.83
2019-02-12T11:31:28.373Z,964.83
2019-02-12T11:32:28.357Z,964.83
2019-02-12T11:33:28.341Z,964.79
2019-02-12T11:34:28.325Z,964.72
2019-02-12T11:35:28.310Z,964.83
2019-02-12T11:36:28.291Z,964.81
2019-02-12T11:37:28.289Z,964.89
2019-02-12T11:38:28.259Z,964.87
2019-02-12T11:39:28.243Z,964.93
2019-02-12T11:40:28.225Z,964.88
2019-02-12T11:41:28.211Z,964.91
2019-02-12T11:42:28.193Z,964.92
2019-02-12T11:43:28.175Z,964.87
2019-02-12T11:44:28.160Z,964.87
2019-02-12T11:45:28.144Z,964.9
2019-02-12T11:46:28.128Z,964.84
2019-02-12T11:47:28.109Z,964.92
2019-02-12T11:48:28.094Z,964.89
2019-02-12T11:49:28.078Z,964.89
2019-02-12T11:50:28.062Z,964.85
2019-02-12T11:51:28.045Z,964.92
2019-02-12T11:52:28.031Z,964.89
2019-02-12T11:53:28.144Z,964.81
2019-02-12T11:54:27.997Z,964.86
2019-02-12T11:55:27.980Z,964.9
2019-02-12T11:56:27.965Z,964.91
2019-02-12T11:57:27.949Z,964.87
2019-02-12T11:58:27.932Z,964.89
2019-02-12T11:59:27.917Z,964.94
2019-02-12T12:00:27.900Z,964.85
2019-02-12T12:01:27.883Z,964.86
2019-02-12T12:02:27.868Z,964.92
2019-02-12T12:03:27.851Z,964.96
2019-02-12T12:04:27.835Z,964.86
2019-02-12T12:05:27.818Z,964.92
2019-02-12T12:06:27.803Z,964.88
2019-02-12T12:07:27.788Z,964.94
2019-02-12T12:08:27.769Z,964.91
2019-02-12T12:09:27.753Z,964.96
2019-02-12T12:10:27.736Z,964.97
2019-02-12T12:11:27.720Z,964.91
2019-02-12T12:12:27.704Z,964.84
2019-02-12T12:13:27.687Z,964.89
2019-02-12T12:14:27.669Z,964.92
2019-02-12T12:15:27.654Z,964.96
2019-02-12T12:16:27.639Z,964.98
2019-02-12T12:17:27.620Z,965.03
2019-02-12T12:18:27.603Z,965.08
2019-02-12T12:19:27.586Z,965.09
2019-02-12T12:20:27.569Z,965.1
2019-02-12T12:21:27.561Z,965.07
2019-02-12T12:22:27.539Z,965.11
2019-02-12T12:23:27.519Z,965.13
2019-02-12T12:24:27.500Z,965.14
2019-02-12T12:25:27.484Z,965.14
2019-02-12T12:26:27.468Z,965.12
2019-02-12T12:27:27.450Z,965.18
2019-02-12T12:28:27.433Z,965.14
2019-02-12T12:29:27.416Z,965.17
2019-02-12T12:30:27.401Z,965.14